createdAt,value
2019-05-07T00:00:23.892Z,18.200001
2019-05-07T00:01:23.956Z,18.9
2019-05-07T00:02:24.046Z,18.6
2019-05-07T00:03:24.101Z,17.9
2019-05-07T00:04:24.201Z,18.700001
2019-05-07T00:05:24.311Z,19.799999
2019-05-07T00:06:24.414Z,19.6
2019-05-07T00:07:24.485Z,18.5
2019-05-07T00:08:24.564Z,17.9
2019-05-07T00:09:24.685Z,17.5
2019-05-07T00:10:25.048Z,16.700001
2019-05-07T00:11:24.911Z,18.4
2019-05-07T00:12:24.960Z,17.799999
2019-05-07T00:13:25.028Z,18
2019-05-07T00:14:25.176Z,18.4
2019-05-07T00:15:25.254Z,18
2019-05-07T00:16:25.374Z,18.200001
2019-05-07T00:17:25.437Z,17.9
2019-05-07T00:18:25.551Z,18.1
2019-05-07T00:19:25.635Z,18
2019-05-07T00:20:25.724Z,18.1
2019-05-07T00:21:25.843Z,18.4
2019-05-07T00:22:25.991Z,17.299999
2019-05-07T00:23:26.046Z,17.4
2019-05-07T00:24:26.111Z,17
2019-05-07T00:25:26.201Z,17.6
2019-05-07T00:26:26.283Z,17.5
2019-05-07T00:27:26.369Z,17.1
2019-05-07T00:28:26.430Z,17.4
2019-05-07T00:29:26.508Z,17.1
2019-05-07T00:30:26.568Z,17.5
2019-05-07T00:31:26.680Z,17.299999
2019-05-07T00:32:26.766Z,17.6
2019-05-07T00:33:26.846Z,15.9
2019-05-07T00:34:26.958Z,17.700001
2019-05-07T00:35:27.033Z,16.799999
2019-05-07T00:36:27.143Z,16.9
2019-05-07T00:37:27.246Z,16.6
2019-05-07T00:38:27.316Z,16.700001
2019-05-07T00:39:27.403Z,16.200001
2019-05-07T00:40:27.463Z,16.700001
2019-05-07T00:41:27.517Z,16.200001
2019-05-07T00:42:28.668Z,16.6
2019-05-07T00:43:28.720Z,16.299999
2019-05-07T00:44:28.774Z,17.200001
2019-05-07T00:45:28.820Z,16.700001
2019-05-07T00:46:28.891Z,17.5
2019-05-07T00:47:28.954Z,18.1
2019-05-07T00:48:29.002Z,18.1
2019-05-07T00:50:28.155Z,18.1
2019-05-07T00:51:28.221Z,18.299999
2019-05-07T00:52:28.348Z,16.9
2019-05-07T00:53:28.425Z,17.5
2019-05-07T00:54:29.505Z,17
2019-05-07T00:55:29.553Z,17.700001
2019-05-07T00:56:29.617Z,17.799999
2019-05-07T00:57:29.715Z,16.700001
2019-05-07T00:59:31.997Z,18.4
2019-05-07T01:00:28.924Z,17.5
2019-05-07T01:01:32.139Z,17.200001
2019-05-07T01:02:29.053Z,17.799999
2019-05-07T01:03:30.094Z,17.6
2019-05-07T01:04:29.150Z,17.200001
2019-05-07T01:05:32.361Z,17.5
2019-05-07T01:06:29.287Z,17
2019-05-07T01:07:32.394Z,17.4
2019-05-07T01:10:29.604Z,17.299999
2019-05-07T01:11:30.665Z,16.299999
2019-05-07T01:12:29.757Z,16.5
2019-05-07T01:13:32.297Z,16.9
2019-05-07T01:14:29.903Z,18
2019-05-07T01:15:31.976Z,17.200001
2019-05-07T01:16:32.928Z,16.6
2019-05-07T01:17:30.066Z,17.5
2019-05-07T01:18:32.366Z,16.799999
2019-05-07T01:19:30.276Z,16.799999
2019-05-07T01:20:32.676Z,17.1
2019-05-07T01:21:32.409Z,17.1
2019-05-07T01:22:32.773Z,17.1
2019-05-07T01:23:32.201Z,17.6
2019-05-07T01:24:32.178Z,17.4
2019-05-07T01:25:32.604Z,18.1
2019-05-07T01:26:32.692Z,18
2019-05-07T01:27:32.113Z,17.799999
2019-05-07T01:28:32.753Z,17.9
2019-05-07T01:29:32.778Z,19.200001
2019-05-07T01:30:32.399Z,18.9
2019-05-07T01:31:32.846Z,18.200001
2019-05-07T01:32:32.944Z,18.700001
2019-05-07T01:33:33.177Z,18.6
2019-05-07T01:34:32.240Z,19.799999
2019-05-07T01:35:32.665Z,18.700001
2019-05-07T01:36:32.001Z,19.200001
2019-05-07T01:37:32.550Z,19
2019-05-07T01:38:33.129Z,18.6
2019-05-07T01:39:32.606Z,20
2019-05-07T01:40:32.743Z,20
2019-05-07T01:41:32.633Z,20
2019-05-07T01:42:32.663Z,20.700001
2019-05-07T01:43:32.990Z,19.6
2019-05-07T01:44:32.646Z,20.4
2019-05-07T01:45:45.050Z,19.1
2019-05-07T01:46:33.130Z,19.4
2019-05-07T01:47:33.114Z,19.5
2019-05-07T01:48:32.467Z,18.799999
2019-05-07T01:49:33.362Z,19.200001
2019-05-07T01:50:32.452Z,20.200001
2019-05-07T01:51:32.780Z,20.4
2019-05-07T01:52:33.222Z,20.799999
2019-05-07T01:53:32.734Z,19.299999
2019-05-07T01:54:33.379Z,21
2019-05-07T01:55:32.912Z,19.4
2019-05-07T01:56:33.242Z,19.700001
2019-05-07T01:57:33.084Z,18.5
2019-05-07T01:58:33.421Z,18.700001
2019-05-07T01:59:33.308Z,19.1
2019-05-07T02:00:33.388Z,19.299999
2019-05-07T02:01:35.815Z,19.200001
2019-05-07T02:02:33.560Z,18.9
2019-05-07T02:03:33.614Z,18.6
2019-05-07T02:04:33.692Z,19.200001
2019-05-07T02:05:33.753Z,19.799999
2019-05-07T02:06:33.812Z,20.1
2019-05-07T02:07:33.883Z,20.1
2019-05-07T02:08:33.958Z,19.200001
2019-05-07T02:09:34.169Z,18.799999
2019-05-07T02:10:34.141Z,19.799999
2019-05-07T02:11:34.208Z,20.4
2019-05-07T02:12:34.282Z,19.4
2019-05-07T02:13:34.343Z,19.9
2019-05-07T02:14:34.459Z,20.4
2019-05-07T02:15:34.535Z,20.200001
2019-05-07T02:16:34.615Z,19.799999
2019-05-07T02:17:34.684Z,18.9
2019-05-07T02:18:34.764Z,18.5
2019-05-07T02:19:34.853Z,19.700001
2019-05-07T02:20:34.947Z,18.9
2019-05-07T02:21:35.023Z,18.200001
2019-05-07T02:22:35.083Z,18.4
2019-05-07T02:23:35.174Z,19.299999
2019-05-07T02:24:35.285Z,19.5
2019-05-07T02:25:35.364Z,19.9
2019-05-07T02:26:35.419Z,19.4
2019-05-07T02:27:35.477Z,19.200001
2019-05-07T02:28:35.606Z,20.1
2019-05-07T02:29:38.063Z,20.799999
2019-05-07T02:30:35.793Z,19.700001
2019-05-07T02:31:35.833Z,19.9
2019-05-07T02:32:35.881Z,18.9
2019-05-07T02:33:35.942Z,19
2019-05-07T02:34:36.028Z,18.700001
2019-05-07T02:35:36.095Z,19.299999
2019-05-07T02:36:36.176Z,18.799999
2019-05-07T02:37:48.118Z,19.700001
2019-05-07T02:38:36.274Z,19.5
2019-05-07T02:39:36.353Z,19
2019-05-07T02:40:36.411Z,18.9
2019-05-07T02:41:36.516Z,18.6
2019-05-07T02:42:36.622Z,19.200001
2019-05-07T02:43:36.699Z,19.4
2019-05-07T02:44:36.787Z,18.299999
2019-05-07T02:45:36.891Z,19.1
2019-05-07T02:46:36.949Z,19.700001
2019-05-07T02:47:37.970Z,19.4
2019-05-07T02:48:37.045Z,20.200001
2019-05-07T02:49:37.104Z,19.5
2019-05-07T02:50:37.200Z,19
2019-05-07T02:51:37.289Z,18.5
2019-05-07T02:52:37.356Z,19.200001
2019-05-07T02:53:37.433Z,18.700001
2019-05-07T02:54:37.512Z,19.4
2019-05-07T02:55:37.604Z,19.1
2019-05-07T02:56:37.695Z,18.5
2019-05-07T02:57:37.757Z,18.9
2019-05-07T02:58:37.839Z,19.299999
2019-05-07T02:59:37.907Z,18.700001
2019-05-07T03:00:37.994Z,19.200001
2019-05-07T03:01:38.088Z,19.799999
2019-05-07T03:02:38.149Z,19.5
2019-05-07T03:03:38.203Z,18.5
2019-05-07T03:04:38.262Z,19.4
2019-05-07T03:05:38.299Z,18.5
2019-05-07T03:06:38.433Z,18.700001
2019-05-07T03:07:38.510Z,18.799999
2019-05-07T03:08:38.573Z,19.1
2019-05-07T03:09:38.630Z,19
2019-05-07T03:10:38.682Z,19.299999
2019-05-07T03:11:38.767Z,19.1
2019-05-07T03:12:42.729Z,19.200001
2019-05-07T03:13:42.972Z,19.200001
2019-05-07T03:14:39.920Z,19.6
2019-05-07T03:15:43.185Z,19.4
2019-05-07T03:16:45.130Z,18.799999
2019-05-07T03:17:42.798Z,20.1
2019-05-07T03:19:42.743Z,20.299999
2019-05-07T03:20:39.280Z,19.299999
2019-05-07T03:21:40.351Z,19.200001
2019-05-07T03:22:42.797Z,19.5
2019-05-07T03:23:42.641Z,19.6
2019-05-07T03:24:43.293Z,19.799999
2019-05-07T03:25:43.071Z,20.1
2019-05-07T03:26:39.706Z,19
2019-05-07T03:27:43.097Z,20.1
2019-05-07T03:30:45.448Z,21.6
2019-05-07T03:31:45.996Z,21.1
2019-05-07T03:32:46.696Z,20.5
2019-05-07T03:33:46.382Z,20.1
2019-05-07T03:34:46.163Z,20.700001
2019-05-07T03:35:45.768Z,21
2019-05-07T03:36:46.487Z,21
2019-05-07T03:37:43.918Z,20.1
2019-05-07T03:38:43.831Z,20.4
2019-05-07T03:39:42.926Z,21.4
2019-05-07T03:40:44.489Z,21.299999
2019-05-07T03:41:43.275Z,21.700001
2019-05-07T03:42:40.481Z,21.4
2019-05-07T03:43:43.396Z,20.5
2019-05-07T03:44:44.190Z,20.9
2019-05-07T03:45:43.174Z,21.1
2019-05-07T03:46:54.367Z,20.4
2019-05-07T03:47:43.834Z,20.6
2019-05-07T03:48:43.787Z,21.5
2019-05-07T03:49:42.946Z,21.6
2019-05-07T03:50:43.047Z,21
2019-05-07T03:51:44.130Z,22.1
2019-05-07T03:52:42.798Z,21.4
2019-05-07T03:53:43.480Z,21.299999
2019-05-07T03:54:43.020Z,21.5
2019-05-07T03:55:44.260Z,20.9
2019-05-07T03:56:43.509Z,22
2019-05-07T03:57:43.546Z,23
2019-05-07T03:58:43.430Z,21.6
2019-05-07T03:59:43.123Z,21.5
2019-05-07T04:00:44.150Z,21.6
2019-05-07T04:01:43.022Z,20.9
2019-05-07T04:02:43.665Z,21.799999
2019-05-07T04:03:44.369Z,21.299999
2019-05-07T04:04:43.190Z,20.9
2019-05-07T04:05:43.278Z,19.9
2019-05-07T04:06:43.368Z,20.200001
2019-05-07T04:07:43.131Z,20.4
2019-05-07T04:08:43.656Z,20
2019-05-07T04:09:43.678Z,19.6
2019-05-07T04:10:44.111Z,19.9
2019-05-07T04:11:43.379Z,20.6
2019-05-07T04:12:44.071Z,20.299999
2019-05-07T04:13:43.961Z,20.4
2019-05-07T04:14:43.412Z,20
2019-05-07T04:15:43.779Z,20.299999
2019-05-07T04:16:44.038Z,20.299999
2019-05-07T04:17:43.107Z,20.4
2019-05-07T04:18:43.884Z,20.4
2019-05-07T04:19:43.990Z,21
2019-05-07T04:20:43.700Z,19.9
2019-05-07T04:21:43.536Z,20.1
2019-05-07T04:22:43.472Z,19.6
2019-05-07T04:23:43.734Z,19.200001
2019-05-07T04:24:43.239Z,20
2019-05-07T04:25:43.610Z,19.6
2019-05-07T04:26:43.374Z,19.9
2019-05-07T04:27:46.824Z,19.9
2019-05-07T04:28:44.556Z,20.299999
2019-05-07T04:29:43.577Z,19.299999
2019-05-07T04:30:43.956Z,19.5
2019-05-07T04:31:44.020Z,20
2019-05-07T04:32:43.601Z,18.9
2019-05-07T04:33:44.046Z,18.9
2019-05-07T04:34:44.367Z,19.9
2019-05-07T04:35:43.694Z,20.299999
2019-05-07T04:36:43.970Z,20
2019-05-07T04:37:43.635Z,19.9
2019-05-07T04:38:44.070Z,18.799999
2019-05-07T04:39:43.698Z,18.799999
2019-05-07T04:40:43.878Z,18.9
2019-05-07T04:41:43.816Z,20
2019-05-07T04:42:43.702Z,19
2019-05-07T04:43:43.842Z,19.200001
2019-05-07T04:44:43.935Z,19.4
2019-05-07T04:45:43.818Z,19.299999
2019-05-07T04:46:47.902Z,18.9
2019-05-07T04:47:47.619Z,19.9
2019-05-07T04:48:44.887Z,20.4
2019-05-07T04:49:44.099Z,19.6
2019-05-07T04:50:47.511Z,20.799999
2019-05-07T04:51:45.245Z,20
2019-05-07T04:52:44.231Z,19.6
2019-05-07T04:53:45.431Z,19.299999
2019-05-07T04:54:44.450Z,19.6
2019-05-07T04:55:44.471Z,20.299999
2019-05-07T04:56:44.465Z,20.4
2019-05-07T04:57:44.477Z,20
2019-05-07T04:58:44.480Z,19.799999
2019-05-07T04:59:44.526Z,20.299999
2019-05-07T05:00:44.576Z,19.6
2019-05-07T05:01:44.589Z,19
2019-05-07T05:02:44.579Z,19.700001
2019-05-07T05:03:44.594Z,19.700001
2019-05-07T05:04:44.663Z,19.9
2019-05-07T05:05:44.650Z,19.700001
2019-05-07T05:06:44.661Z,19.5
2019-05-07T05:07:44.691Z,19.4
2019-05-07T05:08:44.715Z,19.200001
2019-05-07T05:09:44.939Z,20
2019-05-07T05:10:44.816Z,20.6
2019-05-07T05:11:44.833Z,20.299999
2019-05-07T05:12:44.855Z,19.6
2019-05-07T05:13:45.074Z,19.700001
2019-05-07T05:14:44.907Z,20.1
2019-05-07T05:15:44.974Z,20.5
2019-05-07T05:16:44.989Z,19.700001
2019-05-07T05:17:49.940Z,20
2019-05-07T05:18:46.153Z,20
2019-05-07T05:19:46.170Z,20.299999
2019-05-07T05:20:45.246Z,20.299999
2019-05-07T05:21:46.301Z,20.299999
2019-05-07T05:22:45.302Z,19.6
2019-05-07T05:23:45.299Z,20.1
2019-05-07T05:24:45.308Z,19.4
2019-05-07T05:25:45.388Z,18.799999
2019-05-07T05:26:45.399Z,19.4
2019-05-07T05:27:45.407Z,19.4
2019-05-07T05:28:45.414Z,18.299999
2019-05-07T05:29:45.413Z,19.6
2019-05-07T05:30:45.444Z,18.5
2019-05-07T05:31:45.458Z,18.4
2019-05-07T05:32:45.480Z,18.700001
2019-05-07T05:33:45.493Z,19.4
2019-05-07T05:34:45.517Z,19.1
2019-05-07T05:35:45.617Z,19.200001
2019-05-07T05:36:45.639Z,19.200001
2019-05-07T05:37:45.646Z,19.299999
2019-05-07T05:38:45.654Z,19.299999
2019-05-07T05:39:45.679Z,20.1
2019-05-07T05:40:45.732Z,19.799999
2019-05-07T05:41:45.774Z,19.6
2019-05-07T05:42:45.813Z,19.299999
2019-05-07T05:43:45.852Z,18
2019-05-07T05:44:45.871Z,17.5
2019-05-07T05:45:45.907Z,18.1
2019-05-07T05:46:45.930Z,17.6
2019-05-07T05:47:45.921Z,18.5
2019-05-07T05:48:45.943Z,18.1
2019-05-07T05:49:45.983Z,18.5
2019-05-07T05:50:46.026Z,17.200001
2019-05-07T05:51:46.060Z,17.700001
2019-05-07T05:52:46.071Z,17.4
2019-05-07T05:53:46.079Z,17.4
2019-05-07T05:54:46.089Z,17.4
2019-05-07T05:55:46.106Z,18.1
2019-05-07T05:56:46.159Z,17.5
2019-05-07T05:57:46.213Z,18.700001
2019-05-07T05:58:46.227Z,18.299999
2019-05-07T05:59:50.988Z,17.5
2019-05-07T06:00:47.383Z,17.299999
2019-05-07T06:01:46.436Z,17.5
2019-05-07T06:02:46.464Z,17
2019-05-07T06:03:47.473Z,17.200001
2019-05-07T06:04:46.452Z,17.5
2019-05-07T06:05:46.631Z,16.6
2019-05-07T06:06:46.721Z,16.799999
2019-05-07T06:07:46.747Z,17
2019-05-07T06:08:46.787Z,17.5
2019-05-07T06:09:46.786Z,16.5
2019-05-07T06:10:47.768Z,16.299999
2019-05-07T06:11:48.080Z,16.200001
2019-05-07T06:12:48.062Z,17.299999
2019-05-07T06:13:48.091Z,16.200001
2019-05-07T06:14:47.102Z,16.299999
2019-05-07T06:15:47.115Z,16.299999
2019-05-07T06:16:47.155Z,16.1
2019-05-07T06:17:47.167Z,16.299999
2019-05-07T06:18:47.180Z,15.9
2019-05-07T06:19:47.182Z,16.4
2019-05-07T06:20:47.191Z,16
2019-05-07T06:21:47.222Z,14.7
2019-05-07T06:22:47.257Z,14.3
2019-05-07T06:23:47.248Z,14.2
2019-05-07T06:24:47.249Z,13.5
2019-05-07T06:25:47.251Z,13.9
2019-05-07T06:26:48.350Z,13.4
2019-05-07T06:27:48.361Z,13.6
2019-05-07T06:28:48.354Z,13.5
2019-05-07T06:29:48.338Z,14.1
2019-05-07T06:30:48.492Z,14.1
2019-05-07T06:31:48.668Z,13.8
2019-05-07T06:32:48.706Z,13.6
2019-05-07T06:33:48.699Z,13.7
2019-05-07T06:34:48.848Z,13.5
2019-05-07T06:35:49.004Z,13.6
2019-05-07T06:36:49.000Z,13.7
2019-05-07T06:37:49.189Z,13.5
2019-05-07T06:41:49.231Z,14.4
2019-05-07T06:42:48.262Z,13.4
2019-05-07T06:43:49.268Z,14.1
2019-05-07T06:44:48.313Z,14.3
2019-05-07T06:45:48.324Z,14.1
2019-05-07T06:46:48.320Z,14.5
2019-05-07T06:47:48.367Z,14.4
2019-05-07T06:48:48.310Z,14.3
2019-05-07T06:49:48.330Z,14.5
2019-05-07T06:50:49.328Z,14.6
2019-05-07T06:51:48.316Z,14.4
2019-05-07T06:52:51.718Z,14.3
2019-05-07T06:53:48.526Z,14.3
2019-05-07T06:54:49.572Z,14.8
2019-05-07T06:55:48.584Z,14
2019-05-07T06:56:49.561Z,15.5
2019-05-07T06:57:48.754Z,14.5
2019-05-07T06:58:49.794Z,14.8
2019-05-07T06:59:48.812Z,15.1
2019-05-07T07:00:49.820Z,15.1
2019-05-07T07:01:48.808Z,14.5
2019-05-07T07:02:52.269Z,14.8
2019-05-07T07:03:49.018Z,15.2
2019-05-07T07:04:51.850Z,15.2
2019-05-07T07:05:49.021Z,14.9
2019-05-07T07:06:49.038Z,15.1
2019-05-07T07:07:50.052Z,15
2019-05-07T07:08:49.058Z,13
2019-05-07T07:09:51.903Z,13.1
2019-05-07T07:10:49.093Z,13.7
2019-05-07T07:11:50.180Z,13.3
2019-05-07T07:12:49.149Z,13.2
2019-05-07T07:13:51.957Z,13.5
2019-05-07T07:14:49.308Z,12.9
2019-05-07T07:15:49.320Z,13.5
2019-05-07T07:16:49.329Z,12.8
2019-05-07T07:17:52.338Z,12.6
2019-05-07T07:18:52.348Z,11.7
2019-05-07T07:19:52.292Z,11
2019-05-07T07:20:49.534Z,11.3
2019-05-07T07:21:49.532Z,11.4
2019-05-07T07:22:49.542Z,10.7
2019-05-07T07:23:49.583Z,11.4
2019-05-07T07:24:49.609Z,11.5
2019-05-07T07:25:52.203Z,11.4
2019-05-07T07:26:49.693Z,11.8
2019-05-07T07:27:52.050Z,12
2019-05-07T07:28:49.752Z,11.8
2019-05-07T07:29:49.755Z,11.9
2019-05-07T07:30:49.806Z,11.3
2019-05-07T07:31:49.853Z,12.3
2019-05-07T07:32:51.464Z,11.5
2019-05-07T07:33:49.886Z,11
2019-05-07T07:34:49.890Z,10.1
2019-05-07T07:35:52.060Z,10.4
2019-05-07T07:37:03.008Z,10.5
2019-05-07T07:37:53.000Z,10.3
2019-05-07T07:38:52.514Z,10.4
2019-05-07T07:39:52.265Z,10.3
2019-05-07T07:40:52.573Z,9.8
2019-05-07T07:41:52.208Z,9.6
2019-05-07T07:42:52.021Z,10.5
2019-05-07T07:43:52.345Z,10.1
2019-05-07T07:44:51.889Z,10.7
2019-05-07T07:45:52.534Z,11.1
2019-05-07T07:46:52.889Z,10.9
2019-05-07T07:47:52.841Z,10.7
2019-05-07T07:49:04.115Z,10.5
2019-05-07T07:49:52.558Z,10.6
2019-05-07T07:50:52.414Z,10.4
2019-05-07T07:51:52.539Z,10.9
2019-05-07T07:52:52.892Z,11.2
2019-05-07T07:53:52.001Z,11.7
2019-05-07T07:54:52.889Z,11.8
2019-05-07T07:55:52.907Z,11.9
2019-05-07T07:56:53.715Z,11.2
2019-05-07T07:57:52.186Z,11.5
2019-05-07T07:58:52.406Z,11.4
2019-05-07T07:59:52.834Z,11.4
2019-05-07T08:00:52.289Z,11.1
2019-05-07T08:01:52.408Z,11.8
2019-05-07T08:02:52.893Z,11.8
2019-05-07T08:03:52.239Z,10.8
2019-05-07T08:04:52.733Z,10.1
2019-05-07T08:05:51.864Z,10.4
2019-05-07T08:06:52.297Z,10.2
2019-05-07T08:07:52.939Z,10.2
2019-05-07T08:08:52.894Z,9.7
2019-05-07T08:09:52.121Z,9
2019-05-07T08:10:52.088Z,9.6
2019-05-07T08:11:52.686Z,8.4
2019-05-07T08:12:52.530Z,8.3
2019-05-07T08:13:52.854Z,7.9
2019-05-07T08:14:52.137Z,8
2019-05-07T08:15:52.104Z,8.8
2019-05-07T08:16:52.844Z,8.7
2019-05-07T08:17:52.274Z,8.2
2019-05-07T08:18:52.304Z,8.2
2019-05-07T08:19:52.383Z,8.2
2019-05-07T08:20:52.618Z,8.2
2019-05-07T08:21:52.493Z,8
2019-05-07T08:22:52.717Z,7.7
2019-05-07T08:23:52.914Z,6.8
2019-05-07T08:24:52.868Z,6.5
2019-05-07T08:25:52.940Z,6.1
2019-05-07T08:26:52.815Z,6.2
2019-05-07T08:27:52.822Z,6.6
2019-05-07T08:28:52.846Z,6.8
2019-05-07T08:29:52.964Z,6.5
2019-05-07T08:30:53.035Z,6.3
2019-05-07T08:31:53.257Z,7.1
2019-05-07T08:32:53.403Z,7.4
2019-05-07T08:33:53.464Z,7.7
2019-05-07T08:34:53.420Z,7.1
2019-05-07T08:35:53.521Z,7.7
2019-05-07T08:36:53.634Z,7.9
2019-05-07T08:37:53.743Z,8
2019-05-07T08:38:53.762Z,7.9
2019-05-07T08:39:53.758Z,8
2019-05-07T08:40:53.816Z,8
2019-05-07T08:41:53.817Z,8.5
2019-05-07T08:42:53.812Z,7.7
2019-05-07T08:44:07.276Z,7.8
2019-05-07T08:44:54.811Z,7.9
2019-05-07T08:45:53.844Z,7.5
2019-05-07T08:46:53.873Z,7
2019-05-07T08:47:53.906Z,6.4
2019-05-07T08:48:53.901Z,6.9
2019-05-07T08:49:53.938Z,7.1
2019-05-07T08:50:53.980Z,7.4
2019-05-07T08:51:54.015Z,7.5
2019-05-07T08:52:54.036Z,6.3
2019-05-07T08:53:54.065Z,6
2019-05-07T08:54:54.035Z,6.7
2019-05-07T08:55:54.118Z,6.8
2019-05-07T08:56:54.131Z,6.8
2019-05-07T08:57:54.116Z,7.3
2019-05-07T08:58:54.301Z,7.1
2019-05-07T09:00:00.208Z,7.4
2019-05-07T09:00:55.472Z,7.2
2019-05-07T09:01:54.476Z,7.3
2019-05-07T09:02:54.473Z,7.1
2019-05-07T09:03:54.495Z,6.5
2019-05-07T09:04:54.507Z,6.5
2019-05-07T09:05:54.558Z,5.8
2019-05-07T09:06:54.601Z,5.6
2019-05-07T09:07:54.624Z,5.5
2019-05-07T09:08:54.671Z,5.9
2019-05-07T09:09:54.675Z,6.1
2019-05-07T09:10:54.720Z,6.1
2019-05-07T09:11:54.775Z,7
2019-05-07T09:12:54.761Z,7.3
2019-05-07T09:13:54.771Z,7.1
2019-05-07T09:14:54.801Z,6.9
2019-05-07T09:15:54.813Z,6.9
2019-05-07T09:16:54.850Z,6.3
2019-05-07T09:17:54.887Z,6.4
2019-05-07T09:18:54.919Z,6.3
2019-05-07T09:19:55.105Z,6.6
2019-05-07T09:20:54.958Z,7.4
2019-05-07T09:21:54.998Z,6.7
2019-05-07T09:22:55.000Z,6.4
2019-05-07T09:23:55.007Z,6.6
2019-05-07T09:24:55.032Z,6.6
2019-05-07T09:25:55.035Z,6.3
2019-05-07T09:26:55.072Z,6.2
2019-05-07T09:27:55.121Z,6.7
2019-05-07T09:28:55.155Z,6.9
2019-05-07T09:29:55.208Z,7.1
2019-05-07T09:30:55.215Z,7
2019-05-07T09:31:55.257Z,6.9
2019-05-07T09:32:55.275Z,6.6
2019-05-07T09:33:55.272Z,6.9
2019-05-07T09:34:55.520Z,6.8
2019-05-07T09:35:55.355Z,7.1
2019-05-07T09:36:55.535Z,7.1
2019-05-07T09:37:55.507Z,7.2
2019-05-07T09:38:58.957Z,7
2019-05-07T09:39:56.648Z,7.2
2019-05-07T09:40:57.046Z,7.3
2019-05-07T09:41:55.854Z,7.3
2019-05-07T09:42:55.979Z,7.1
2019-05-07T09:43:55.888Z,7
2019-05-07T09:44:55.916Z,7.2
2019-05-07T09:45:55.937Z,7
2019-05-07T09:46:55.987Z,7.4
2019-05-07T09:47:55.992Z,7.1
2019-05-07T09:48:55.999Z,7.4
2019-05-07T09:50:04.477Z,7.1
2019-05-07T09:50:55.998Z,7.8
2019-05-07T09:51:56.044Z,7.3
2019-05-07T09:52:56.047Z,7.5
2019-05-07T09:53:56.087Z,9.1
2019-05-07T09:54:56.094Z,9.5
2019-05-07T09:55:56.104Z,9.9
2019-05-07T09:56:56.131Z,10.8
2019-05-07T09:57:56.222Z,10.2
2019-05-07T09:58:56.244Z,9.9
2019-05-07T09:59:56.278Z,9.6
2019-05-07T10:00:56.299Z,10
2019-05-07T10:01:56.310Z,10
2019-05-07T10:02:56.797Z,10.6
2019-05-07T10:03:56.349Z,10
2019-05-07T10:04:56.414Z,9.8
2019-05-07T10:05:56.447Z,9.8
2019-05-07T10:06:56.447Z,9.9
2019-05-07T10:07:56.499Z,9.7
2019-05-07T10:08:56.513Z,10
2019-05-07T10:09:56.518Z,9.2
2019-05-07T10:10:56.542Z,8.6
2019-05-07T10:11:56.546Z,8.7
2019-05-07T10:12:56.581Z,9
2019-05-07T10:13:56.586Z,9.3
2019-05-07T10:14:56.589Z,8.5
2019-05-07T10:15:56.596Z,8.9
2019-05-07T10:16:56.608Z,8.7
2019-05-07T10:17:56.646Z,8.4
2019-05-07T10:18:56.699Z,7
2019-05-07T10:19:56.823Z,8.3
2019-05-07T10:20:56.850Z,7
2019-05-07T10:21:56.855Z,6.9
2019-05-07T10:22:56.898Z,7.3
2019-05-07T10:23:56.967Z,7.4
2019-05-07T10:24:56.992Z,6.9
2019-05-07T10:25:57.031Z,6.5
2019-05-07T10:26:57.056Z,6.4
2019-05-07T10:27:57.098Z,6.3
2019-05-07T10:28:57.158Z,5.9
2019-05-07T10:29:57.190Z,6.5
2019-05-07T10:30:57.264Z,6.1
2019-05-07T10:31:57.307Z,6.1
2019-05-07T10:32:57.373Z,6.1
2019-05-07T10:33:58.396Z,6.1
2019-05-07T10:34:58.440Z,5.9
2019-05-07T10:35:58.518Z,6.1
2019-05-07T10:36:58.662Z,6
2019-05-07T10:37:58.747Z,5.4
2019-05-07T10:38:58.851Z,6
2019-05-07T10:39:58.830Z,6.4
2019-05-07T10:40:58.844Z,6
2019-05-07T10:41:58.845Z,6.4
2019-05-07T10:42:58.860Z,5.9
2019-05-07T10:43:57.906Z,5.9
2019-05-07T10:44:57.986Z,5.6
2019-05-07T10:45:58.019Z,6.2
2019-05-07T10:46:59.046Z,6.4
2019-05-07T10:47:58.103Z,6.2
2019-05-07T10:48:59.133Z,5.7
2019-05-07T10:49:59.259Z,5.7
2019-05-07T10:50:58.212Z,5.5
2019-05-07T10:51:59.223Z,5
2019-05-07T10:52:58.235Z,5.3
2019-05-07T10:53:59.322Z,5.7
2019-05-07T10:54:59.978Z,4.9
2019-05-07T10:55:59.334Z,5.7
2019-05-07T10:56:59.362Z,5.6
2019-05-07T10:57:58.378Z,5.3
2019-05-07T10:58:59.378Z,5.7
2019-05-07T10:59:59.415Z,5.6
2019-05-07T11:00:59.430Z,5.9
2019-05-07T11:01:59.438Z,6.2
2019-05-07T11:02:59.477Z,6.1
2019-05-07T11:03:58.674Z,6
2019-05-07T11:04:59.543Z,5.8
2019-05-07T11:05:58.653Z,5.9
2019-05-07T11:06:58.694Z,6.2
2019-05-07T11:07:58.734Z,5.9
2019-05-07T11:08:59.815Z,6.3
2019-05-07T11:09:58.845Z,6.5
2019-05-07T11:10:59.872Z,6.2
2019-05-07T11:12:02.400Z,5.9
2019-05-07T11:14:01.620Z,6
2019-05-07T11:16:02.285Z,6.2
2019-05-07T11:18:02.549Z,5.7
2019-05-07T11:19:59.435Z,7
2019-05-07T11:20:59.467Z,6.9
2019-05-07T11:21:59.525Z,6.5
2019-05-07T11:22:59.531Z,6.8
2019-05-07T11:24:02.841Z,6.7
2019-05-07T11:24:59.574Z,6.9
2019-05-07T11:26:02.381Z,6.7
2019-05-07T11:26:59.619Z,6.8
2019-05-07T11:27:59.695Z,6.5
2019-05-07T11:29:02.353Z,7
2019-05-07T11:29:59.775Z,7
2019-05-07T11:31:01.661Z,7.2
2019-05-07T11:31:59.867Z,7.6
2019-05-07T11:32:59.888Z,7.2
2019-05-07T11:33:59.922Z,7.2
2019-05-07T11:34:59.934Z,7.3
2019-05-07T11:36:02.035Z,7.7
2019-05-07T11:36:59.952Z,7.5
2019-05-07T11:37:59.956Z,8.3
2019-05-07T11:39:01.766Z,7.8
2019-05-07T11:40:00.054Z,7.8
2019-05-07T11:41:02.271Z,8
2019-05-07T11:42:02.260Z,7.6
2019-05-07T11:43:02.298Z,7.7
2019-05-07T11:44:01.751Z,8
2019-05-07T11:45:02.151Z,7.9
2019-05-07T11:46:01.944Z,8.2
2019-05-07T11:47:00.227Z,7.8
2019-05-07T11:48:01.867Z,8
2019-05-07T11:49:00.257Z,7.8
2019-05-07T11:50:00.266Z,7.9
2019-05-07T11:51:03.901Z,8.3
2019-05-07T11:52:00.464Z,7.8
2019-05-07T11:53:00.514Z,8.1
2019-05-07T11:54:02.063Z,8.3
2019-05-07T11:55:03.010Z,8.6
2019-05-07T11:56:02.490Z,8.2
2019-05-07T11:57:02.468Z,7.5
2019-05-07T11:58:02.401Z,8.2
2019-05-07T11:59:02.583Z,8.1
2019-05-07T12:00:02.734Z,7.4
2019-05-07T12:01:03.471Z,7.8
2019-05-07T12:02:01.805Z,8.5
2019-05-07T12:03:02.242Z,8.2
2019-05-07T12:04:01.966Z,8.3
2019-05-07T12:05:02.297Z,8.5
2019-05-07T12:06:02.005Z,8.6
2019-05-07T12:07:02.542Z,8.4
2019-05-07T12:08:02.317Z,9.1
2019-05-07T12:09:02.976Z,8.8
2019-05-07T12:10:04.712Z,8.9
2019-05-07T12:11:02.574Z,8.8
2019-05-07T12:12:02.404Z,9.5
2019-05-07T12:13:02.325Z,8.8
2019-05-07T12:14:01.994Z,8.9
2019-05-07T12:15:02.411Z,8.7
2019-05-07T12:16:02.892Z,8.4
2019-05-07T12:17:02.679Z,9.2
2019-05-07T12:18:02.971Z,9.4
2019-05-07T12:19:02.180Z,9.1
2019-05-07T12:20:02.322Z,9.1
2019-05-07T12:21:02.494Z,9.5
2019-05-07T12:22:02.801Z,10.2
2019-05-07T12:23:02.785Z,10.5
2019-05-07T12:24:02.193Z,10.7
2019-05-07T12:25:02.589Z,9.8
2019-05-07T12:26:02.356Z,9.1
2019-05-07T12:27:02.616Z,8.4
2019-05-07T12:28:02.561Z,10.3
2019-05-07T12:29:01.959Z,10.3
2019-05-07T12:30:01.997Z,9.5
2019-05-07T12:31:02.149Z,10.6
2019-05-07T12:32:02.690Z,11
2019-05-07T12:33:02.411Z,10.6
2019-05-07T12:34:02.615Z,9.2
2019-05-07T12:35:02.451Z,9.4
2019-05-07T12:36:02.450Z,8.7
2019-05-07T12:37:02.527Z,8.8
2019-05-07T12:38:02.550Z,8.8
2019-05-07T12:39:02.594Z,8.6
2019-05-07T12:40:02.654Z,9.1
2019-05-07T12:41:02.674Z,8.8
2019-05-07T12:42:02.727Z,9.1
2019-05-07T12:43:02.736Z,9.9
2019-05-07T12:44:02.804Z,10
2019-05-07T12:45:02.813Z,10.2
2019-05-07T12:46:02.927Z,11.4
2019-05-07T12:47:02.883Z,12.1
2019-05-07T12:48:02.929Z,11.4
2019-05-07T12:49:03.316Z,12.4
2019-05-07T12:50:03.066Z,11.9
2019-05-07T12:51:03.093Z,11.9
2019-05-07T12:52:03.140Z,13
2019-05-07T12:53:03.180Z,13.1
2019-05-07T12:54:03.226Z,13
2019-05-07T12:55:03.414Z,13.5
2019-05-07T12:56:03.310Z,13.7
2019-05-07T12:57:03.461Z,13.2
2019-05-07T12:58:03.532Z,12
2019-05-07T12:59:03.589Z,11.4
2019-05-07T13:00:03.603Z,10.5
2019-05-07T13:01:03.623Z,11.5
2019-05-07T13:02:16.663Z,10.7
2019-05-07T13:03:04.832Z,10.3
2019-05-07T13:04:03.813Z,9.8
2019-05-07T13:05:03.961Z,9.8
2019-05-07T13:06:04.099Z,10.2
2019-05-07T13:07:04.242Z,9.5
2019-05-07T13:08:04.426Z,9.2
2019-05-07T13:09:04.385Z,9.4
2019-05-07T13:10:04.451Z,8.4
2019-05-07T13:11:05.466Z,9.2
2019-05-07T13:12:04.514Z,8.7
2019-05-07T13:13:04.535Z,8.3
2019-05-07T13:14:04.707Z,8.3
2019-05-07T13:15:04.731Z,7.4
2019-05-07T13:16:04.746Z,7.8
2019-05-07T13:17:04.768Z,8.2
2019-05-07T13:18:04.788Z,7.5
2019-05-07T13:19:04.865Z,7.9
2019-05-07T13:20:04.935Z,12
2019-05-07T13:21:04.971Z,7.5
2019-05-07T13:22:05.032Z,8.5
2019-05-07T13:23:05.025Z,8.2
2019-05-07T13:24:05.069Z,8.6
2019-05-07T13:25:05.119Z,8